createdAt,value
2018-03-02T00:01:16.750Z,45.03
2018-03-02T00:03:44.132Z,51.03
2018-03-02T00:06:11.536Z,50.55
2018-03-02T00:08:39.086Z,284.77
2018-03-02T00:11:06.514Z,39.78
2018-03-02T00:13:34.035Z,32.92
2018-03-02T00:16:01.416Z,40.03
2018-03-02T00:18:28.856Z,45.42
2018-03-02T00:20:56.290Z,44.90
2018-03-02T00:23:23.690Z,44.83
2018-03-02T00:25:51.209Z,43.08
2018-03-02T00:28:18.600Z,48.38
2018-03-02T00:30:46.038Z,41.25
2018-03-02T00:33:13.496Z,45.60
2018-03-02T00:35:40.884Z,50.17
2018-03-02T00:38:08.323Z,46.95
2018-03-02T00:40:35.721Z,52.05
2018-03-02T00:43:03.216Z,47.58
2018-03-02T00:45:30.599Z,39.47
2018-03-02T00:47:58.038Z,38.50
2018-03-02T00:50:25.474Z,43.90
2018-03-02T00:52:52.869Z,38.63
2018-03-02T00:55:20.259Z,43.70
2018-03-02T00:57:47.665Z,48.95
2018-03-02T01:00:15.112Z,45.03
2018-03-02T01:02:42.529Z,47.00
2018-03-02T01:05:09.967Z,38.42
2018-03-02T01:07:37.403Z,47.78
2018-03-02T01:10:04.841Z,44.28
2018-03-02T01:12:32.397Z,39.35
2018-03-02T01:14:59.799Z,50.53
2018-03-02T01:17:27.414Z,50.97
2018-03-02T01:19:54.868Z,44.60
2018-03-02T01:22:22.266Z,43.03
2018-03-02T01:24:49.997Z,46.13
2018-03-02T01:27:17.384Z,41.42
2018-03-02T01:29:44.789Z,43.67
2018-03-02T01:32:12.695Z,45.65
2018-03-02T01:34:40.092Z,52.65
2018-03-02T01:37:08.213Z,38.40
2018-03-02T01:39:35.869Z,54.03
2018-03-02T01:42:03.263Z,64.40
2018-03-02T01:44:30.713Z,44.95
2018-03-02T01:46:58.121Z,48.42
2018-03-02T01:49:25.539Z,52.50
2018-03-02T01:51:52.971Z,46.80
2018-03-02T01:54:20.376Z,45.72
2018-03-02T01:56:47.832Z,47.80
2018-03-02T01:59:15.565Z,45.25
2018-03-02T02:01:42.965Z,34.85
2018-03-02T02:04:10.432Z,39.53
2018-03-02T02:06:37.911Z,52.53
2018-03-02T02:09:05.348Z,44.35
2018-03-02T02:11:32.784Z,41.88
2018-03-02T02:14:00.179Z,41.60
2018-03-02T02:16:27.636Z,45.58
2018-03-02T02:18:55.041Z,49.08
2018-03-02T02:21:22.427Z,52.45
2018-03-02T02:23:52.722Z,58.03
2018-03-02T02:26:20.114Z,49.40
2018-03-02T02:28:47.507Z,48.33
2018-03-02T02:31:14.926Z,48.80
2018-03-02T02:33:42.324Z,47.95
2018-03-02T02:36:09.768Z,48.00
2018-03-02T02:38:37.152Z,69.95
2018-03-02T02:41:04.608Z,39.53
2018-03-02T02:43:32.119Z,50.72
2018-03-02T02:45:59.552Z,51.15
2018-03-02T02:48:26.973Z,43.50
2018-03-02T02:50:54.379Z,44.25
2018-03-02T02:53:21.773Z,42.50
2018-03-02T02:55:49.203Z,41.28
2018-03-02T02:58:16.710Z,41.65
2018-03-02T03:00:44.112Z,47.20
2018-03-02T03:03:11.573Z,56.67
2018-03-02T03:05:38.970Z,54.03
2018-03-02T03:08:06.388Z,53.20
2018-03-02T03:10:33.779Z,48.78
2018-03-02T03:13:01.680Z,49.78
2018-03-02T03:15:29.315Z,43.13
2018-03-02T03:17:56.806Z,51.90
2018-03-02T03:20:24.266Z,53.33
2018-03-02T03:22:52.383Z,44.85
2018-03-02T03:25:19.825Z,44.47
2018-03-02T03:27:47.263Z,42.10
2018-03-02T03:30:14.685Z,48.55
2018-03-02T03:32:42.211Z,44.28
2018-03-02T03:35:09.652Z,47.03
2018-03-02T03:37:37.073Z,52.40
2018-03-02T03:40:04.544Z,45.50
2018-03-02T03:42:31.999Z,47.80
2018-03-02T03:44:59.539Z,51.97
2018-03-02T03:47:26.944Z,62.65
2018-03-02T03:49:54.338Z,46.17
2018-03-02T03:52:21.744Z,46.20
2018-03-02T03:54:49.139Z,47.92
2018-03-02T03:57:16.896Z,49.80
2018-03-02T03:59:44.290Z,48.05
2018-03-02T04:02:11.687Z,52.90
2018-03-02T04:04:39.149Z,48.47
2018-03-02T04:07:06.551Z,48.03
2018-03-02T04:09:33.982Z,51.28
2018-03-02T04:12:01.371Z,49.30
2018-03-02T04:14:28.875Z,43.65
2018-03-02T04:16:56.268Z,46.03
2018-03-02T04:19:23.894Z,42.33
2018-03-02T04:21:51.391Z,35.17
2018-03-02T04:24:18.824Z,47.22
2018-03-02T04:26:46.256Z,43.08
2018-03-02T04:29:13.680Z,44.10
2018-03-02T04:31:41.118Z,51.90
2018-03-02T04:34:08.544Z,40.47
2018-03-02T04:36:35.999Z,45.83
2018-03-02T04:39:03.627Z,43.75
2018-03-02T04:41:31.056Z,48.50
2018-03-02T04:43:58.632Z,47.83
2018-03-02T04:46:26.068Z,42.95
2018-03-02T04:48:53.501Z,41.70
2018-03-02T04:51:20.891Z,56.10
2018-03-02T04:53:48.323Z,49.95
2018-03-02T04:56:15.756Z,48.47
2018-03-02T04:58:43.222Z,53.15
2018-03-02T05:01:10.787Z,41.70
2018-03-02T05:03:38.197Z,51.47
2018-03-02T05:06:05.635Z,51.67
2018-03-02T05:08:33.019Z,47.60
2018-03-02T05:11:00.465Z,49.80
2018-03-02T05:13:27.881Z,46.65
2018-03-02T05:15:55.270Z,46.13
2018-03-02T05:18:22.666Z,47.10
2018-03-02T05:20:50.107Z,46.28
2018-03-02T05:23:17.495Z,46.17
2018-03-02T05:25:44.896Z,49.83
2018-03-02T05:28:12.282Z,50.58
2018-03-02T05:30:40.037Z,50.80
2018-03-02T05:33:07.480Z,34.88
2018-03-02T05:35:34.908Z,53.67
2018-03-02T05:38:02.300Z,44.35
2018-03-02T05:40:29.743Z,56.25
2018-03-02T05:42:57.219Z,41.63
2018-03-02T05:45:24.648Z,51.45
2018-03-02T05:47:52.080Z,44.20
2018-03-02T05:50:19.511Z,54.88
2018-03-02T05:52:46.940Z,60.90
2018-03-02T05:55:14.358Z,47.13
2018-03-02T05:57:41.776Z,58.53
2018-03-02T06:00:09.184Z,54.03
2018-03-02T06:02:36.625Z,65.62
2018-03-02T06:05:04.063Z,47.53
2018-03-02T06:07:31.510Z,51.97
2018-03-02T06:09:58.910Z,85.45
2018-03-02T06:12:26.325Z,55.30
2018-03-02T06:14:53.844Z,39.90
2018-03-02T06:17:21.236Z,49.28
2018-03-02T06:19:48.623Z,46.83
2018-03-02T06:22:16.038Z,48.45
2018-03-02T06:24:43.781Z,46.17
2018-03-02T06:27:11.255Z,52.20
2018-03-02T06:29:38.728Z,46.60
2018-03-02T06:32:06.233Z,39.75
2018-03-02T06:34:34.099Z,42.65
2018-03-02T06:37:02.868Z,58.20
2018-03-02T06:39:30.319Z,44.78
2018-03-02T06:41:57.992Z,47.17
2018-03-02T06:44:25.420Z,42.55
2018-03-02T06:46:52.819Z,42.95
2018-03-02T06:49:20.211Z,46.20
2018-03-02T06:51:47.677Z,53.58
2018-03-02T06:54:15.115Z,43.22
2018-03-02T06:56:42.538Z,52.30
2018-03-02T06:59:10.268Z,47.58
2018-03-02T07:01:37.660Z,51.63
2018-03-02T07:04:05.099Z,47.65
2018-03-02T07:06:32.593Z,54.63
2018-03-02T07:09:01.434Z,51.17
2018-03-02T07:11:28.827Z,49.72
2018-03-02T07:13:56.323Z,47.35
2018-03-02T07:16:23.959Z,38.65
2018-03-02T07:18:51.365Z,45.58
2018-03-02T07:21:19.235Z,42.03
2018-03-02T07:23:46.710Z,42.53
2018-03-02T07:26:14.154Z,46.75
2018-03-02T07:28:41.731Z,47.05
2018-03-02T07:31:09.184Z,52.13
2018-03-02T07:33:36.689Z,52.40
2018-03-02T07:36:04.298Z,49.55
2018-03-02T07:38:31.780Z,45.65
2018-03-02T07:40:59.216Z,44.67
2018-03-02T07:43:26.702Z,51.33
2018-03-02T07:45:54.154Z,49.97
2018-03-02T07:48:21.532Z,45.35
2018-03-02T07:50:48.967Z,41.47
2018-03-02T07:53:16.391Z,56.35
2018-03-02T07:55:43.884Z,53.53
2018-03-02T07:58:11.296Z,46.72
2018-03-02T08:00:38.724Z,47.05
2018-03-02T08:03:07.028Z,59.92
2018-03-02T08:05:34.425Z,60.08
2018-03-02T08:08:01.996Z,46.95
2018-03-02T08:10:29.422Z,62.78
2018-03-02T08:12:57.018Z,43.00
2018-03-02T08:15:24.538Z,59.63
2018-03-02T08:17:51.932Z,43.00
2018-03-02T08:20:19.582Z,60.30
2018-03-02T08:22:46.997Z,48.80
2018-03-02T08:25:15.017Z,43.15
2018-03-02T08:27:42.936Z,48.58
2018-03-02T08:30:10.344Z,45.58
2018-03-02T08:32:37.792Z,41.15
2018-03-02T08:35:05.192Z,54.90
2018-03-02T08:37:32.719Z,48.63
2018-03-02T08:40:00.134Z,50.90
2018-03-02T08:42:27.570Z,47.75
2018-03-02T08:44:55.006Z,44.65
2018-03-02T08:47:22.407Z,54.38
2018-03-02T08:49:50.395Z,57.10
2018-03-02T08:52:18.229Z,58.80
2018-03-02T08:54:46.693Z,62.67
2018-03-02T08:57:14.136Z,55.83
2018-03-02T08:59:41.575Z,49.90
2018-03-02T09:02:09.050Z,54.00
2018-03-02T09:04:36.688Z,54.03
2018-03-02T09:07:04.080Z,52.95
2018-03-02T09:09:31.508Z,61.90
2018-03-02T09:11:58.964Z,63.35
2018-03-02T09:14:26.405Z,64.43
2018-03-02T09:16:53.891Z,54.92
2018-03-02T09:19:21.330Z,65.32
2018-03-02T09:21:48.853Z,75.57
2018-03-02T09:24:16.264Z,46.13
2018-03-02T09:26:43.760Z,52.30
2018-03-02T09:29:11.202Z,53.97
2018-03-02T09:31:38.653Z,57.67
2018-03-02T09:34:06.082Z,61.00
2018-03-02T09:36:33.557Z,47.67
2018-03-02T09:39:00.967Z,50.72
2018-03-02T09:41:28.375Z,50.90
2018-03-02T09:43:55.840Z,49.92
2018-03-02T09:46:23.264Z,46.08
2018-03-02T09:48:50.719Z,44.33
2018-03-02T09:51:18.144Z,42.00
2018-03-02T09:53:45.852Z,47.40
2018-03-02T09:56:13.305Z,50.55
2018-03-02T09:58:40.732Z,44.78
2018-03-02T10:01:08.178Z,46.95
2018-03-02T10:03:35.616Z,48.03
2018-03-02T10:06:03.083Z,45.50
2018-03-02T10:08:30.517Z,50.65
2018-03-02T10:10:57.937Z,47.25
2018-03-02T10:13:25.351Z,51.72
2018-03-02T10:15:52.783Z,53.08
2018-03-02T10:18:20.187Z,45.03
2018-03-02T10:20:47.629Z,55.25
2018-03-02T10:23:15.177Z,47.05
2018-03-02T10:25:42.685Z,44.10
2018-03-02T10:28:10.149Z,48.42
2018-03-02T10:30:37.542Z,47.90
2018-03-02T10:33:04.982Z,52.47
2018-03-02T10:35:32.450Z,49.30
2018-03-02T10:37:59.887Z,49.42
2018-03-02T10:40:27.325Z,49.55
2018-03-02T10:42:54.711Z,45.20
2018-03-02T10:45:23.391Z,39.78
2018-03-02T10:47:50.845Z,44.65
2018-03-02T10:50:18.256Z,43.03
2018-03-02T10:52:45.707Z,53.40
2018-03-02T10:55:13.334Z,46.60
2018-03-02T10:57:40.786Z,51.03
2018-03-02T11:00:08.242Z,51.88
2018-03-02T11:02:35.660Z,43.87
2018-03-02T11:05:08.717Z,50.20
2018-03-02T11:07:36.216Z,54.65
2018-03-02T11:10:03.797Z,49.58
2018-03-02T11:12:31.276Z,50.67
2018-03-02T11:14:59.614Z,48.45
2018-03-02T11:17:27.009Z,52.15
2018-03-02T11:19:54.524Z,44.97
2018-03-02T11:22:21.933Z,51.85
2018-03-02T11:24:49.407Z,48.45
2018-03-02T11:27:16.875Z,48.92
2018-03-02T11:29:44.296Z,47.28
2018-03-02T11:32:11.703Z,56.90
2018-03-02T11:34:40.198Z,56.50
2018-03-02T11:37:07.799Z,55.45
2018-03-02T11:39:35.233Z,55.20
2018-03-02T11:42:02.662Z,44.80
2018-03-02T11:44:30.052Z,50.63
2018-03-02T11:46:57.500Z,49.10
2018-03-02T11:49:24.933Z,53.78
2018-03-02T11:51:52.632Z,46.60
2018-03-02T11:54:20.012Z,57.03
2018-03-02T11:56:47.610Z,52.97
2018-03-02T11:59:15.002Z,56.00
2018-03-02T12:01:42.470Z,55.50
2018-03-02T12:04:10.132Z,53.72
2018-03-02T12:06:37.596Z,49.75
2018-03-02T12:09:05.107Z,56.78
2018-03-02T12:11:32.556Z,49.38
2018-03-02T12:13:59.965Z,59.10
2018-03-02T12:16:27.401Z,53.90
2018-03-02T12:18:54.794Z,37.13
2018-03-02T12:21:22.203Z,38.65
2018-03-02T12:23:49.603Z,52.55
2018-03-02T12:26:17.074Z,30.10
2018-03-02T12:28:44.508Z,37.65
2018-03-02T12:31:11.938Z,27.00
2018-03-02T12:33:39.323Z,14.10
2018-03-02T12:36:06.832Z,22.17
2018-03-02T12:38:34.279Z,40.12
2018-03-02T12:41:01.682Z,11.55
2018-03-02T12:43:29.234Z,6.12
2018-03-02T12:45:56.672Z,5.05
2018-03-02T12:48:24.121Z,6.85
2018-03-02T12:50:51.529Z,4.50
2018-03-02T12:53:18.973Z,2.80
2018-03-02T12:55:46.663Z,5.50
2018-03-02T12:58:14.103Z,5.05
2018-03-02T13:00:41.533Z,3.85
2018-03-02T13:03:09.009Z,5.03
2018-03-02T13:05:36.398Z,5.53
2018-03-02T13:08:05.779Z,3.37
2018-03-02T13:10:33.216Z,3.75
2018-03-02T13:13:00.633Z,4.30
2018-03-02T13:15:28.647Z,7.05
2018-03-02T13:17:56.063Z,4.25
2018-03-02T13:20:23.502Z,2.33
2018-03-02T13:22:50.894Z,4.82
2018-03-02T13:25:18.764Z,4.00
2018-03-02T13:27:58.048Z,7.30
2018-03-02T13:30:25.461Z,4.55
2018-03-02T13:33:04.686Z,5.35
2018-03-02T13:35:32.265Z,8.07
2018-03-02T13:37:59.660Z,4.68
2018-03-02T13:40:38.848Z,16.85
2018-03-02T13:43:06.248Z,21.80
2018-03-02T13:45:33.697Z,23.50
2018-03-02T13:51:09.304Z,30.30
2018-03-02T13:53:36.706Z,30.35
2018-03-02T13:56:04.125Z,29.33
2018-03-02T13:58:32.049Z,25.35
2018-03-02T14:00:59.840Z,23.00
2018-03-02T14:03:39.055Z,21.98
2018-03-02T14:06:06.544Z,20.98
2018-03-02T14:08:33.940Z,19.58
2018-03-02T14:11:01.367Z,22.42
2018-03-02T14:13:28.811Z,18.20
2018-03-02T14:15:56.206Z,17.25
2018-03-02T14:18:23.648Z,18.25
2018-03-02T14:20:51.073Z,17.87
2018-03-02T14:23:18.493Z,13.25
2018-03-02T14:25:45.883Z,14.55
2018-03-02T14:28:13.828Z,20.73
2018-03-02T14:30:41.264Z,19.37
2018-03-02T14:33:08.674Z,16.77
2018-03-02T14:35:36.140Z,16.55
2018-03-02T14:38:03.632Z,13.23
2018-03-02T14:40:31.125Z,12.43
2018-03-02T14:42:58.499Z,12.52
2018-03-02T14:45:25.953Z,18.65
2018-03-02T14:47:53.415Z,19.30
2018-03-02T14:50:20.868Z,17.17
2018-03-02T14:52:48.293Z,15.90
2018-03-02T14:55:15.893Z,16.95
2018-03-02T14:57:43.391Z,15.23
2018-03-02T15:00:10.847Z,11.98
2018-03-02T15:02:38.257Z,11.75
2018-03-02T15:05:05.696Z,17.85
2018-03-02T15:07:33.205Z,12.15
2018-03-02T15:10:00.621Z,11.12
2018-03-02T15:12:28.037Z,10.73
2018-03-02T15:14:56.010Z,14.77
2018-03-02T15:17:23.961Z,18.08
2018-03-02T15:19:52.376Z,13.43
2018-03-02T15:22:19.763Z,13.52
2018-03-02T15:24:47.534Z,11.40
2018-03-02T15:27:14.967Z,13.57
2018-03-02T15:29:42.540Z,11.50
2018-03-02T15:32:09.924Z,10.70
2018-03-02T15:34:37.492Z,11.77
2018-03-02T15:37:05.793Z,21.42
2018-03-02T15:39:33.505Z,14.65
2018-03-02T15:42:01.574Z,12.55
2018-03-02T15:44:29.072Z,13.55
2018-03-02T15:46:56.529Z,11.07
2018-03-02T15:49:24.817Z,12.27
2018-03-02T15:51:52.225Z,10.50
2018-03-02T15:54:19.647Z,13.50
2018-03-02T15:56:47.073Z,7.53
2018-03-02T15:59:14.550Z,13.62
2018-03-02T16:01:43.236Z,16.15
2018-03-02T16:04:10.652Z,11.10
2018-03-02T16:06:38.123Z,11.30
2018-03-02T16:09:05.520Z,8.00
2018-03-02T16:11:33.614Z,11.88
2018-03-02T16:14:01.048Z,10.52
2018-03-02T16:16:28.604Z,11.07
2018-03-02T16:18:56.023Z,10.40
2018-03-02T16:21:24.224Z,16.42
2018-03-02T16:23:51.690Z,15.95
2018-03-02T16:26:19.076Z,18.52
2018-03-02T16:28:46.530Z,9.93
2018-03-02T16:31:13.924Z,11.20
2018-03-02T16:33:41.426Z,8.32
2018-03-02T16:36:08.831Z,13.27
2018-03-02T16:38:36.264Z,17.37
2018-03-02T16:41:03.693Z,16.33
2018-03-02T16:43:31.136Z,8.68
2018-03-02T16:45:58.534Z,9.30
2018-03-02T16:48:25.956Z,11.00
2018-03-02T16:50:54.374Z,7.85
2018-03-02T16:53:21.767Z,13.20
2018-03-02T16:55:49.291Z,10.60
2018-03-02T16:58:16.840Z,12.57
2018-03-02T17:00:44.308Z,13.88
2018-03-02T17:03:12.307Z,12.32
2018-03-02T17:05:39.793Z,9.88
2018-03-02T17:08:07.192Z,10.95
2018-03-02T17:10:34.707Z,11.20
2018-03-02T17:13:02.128Z,10.13
2018-03-02T17:15:29.560Z,9.13
2018-03-02T17:17:56.969Z,8.40
2018-03-02T17:20:24.499Z,10.77
2018-03-02T17:22:51.949Z,13.70
2018-03-02T17:25:19.390Z,15.73
2018-03-02T17:27:46.940Z,13.48
2018-03-02T17:30:14.328Z,9.73
2018-03-02T17:32:42.164Z,11.27
2018-03-02T17:35:09.580Z,11.88
2018-03-02T17:37:37.013Z,14.00
2018-03-02T17:40:04.417Z,15.00
2018-03-02T17:42:31.829Z,12.70
2018-03-02T17:44:59.257Z,12.85
2018-03-02T17:47:26.677Z,12.73
2018-03-02T17:49:54.164Z,10.52
2018-03-02T17:52:21.677Z,15.43
2018-03-02T17:54:49.095Z,11.07
2018-03-02T17:57:16.479Z,15.43
2018-03-02T17:59:43.927Z,15.13
2018-03-02T18:02:11.355Z,12.55
2018-03-02T18:04:39.647Z,13.68
2018-03-02T18:07:07.188Z,10.18
2018-03-02T18:09:34.660Z,12.80
2018-03-02T18:12:02.058Z,10.00
2018-03-02T18:14:29.466Z,11.43
2018-03-02T18:16:56.892Z,18.02
2018-03-02T18:19:24.341Z,18.10
2018-03-02T18:21:51.836Z,15.73
2018-03-02T18:24:19.319Z,11.80
2018-03-02T18:26:46.715Z,15.07
2018-03-02T18:29:14.138Z,19.52
2018-03-02T18:31:41.565Z,17.45
2018-03-02T18:34:09.051Z,17.35
2018-03-02T18:36:36.476Z,21.42
2018-03-02T18:39:03.958Z,16.42
2018-03-02T18:41:31.490Z,16.40
2018-03-02T18:43:58.866Z,19.45
2018-03-02T18:46:26.266Z,17.80
2018-03-02T18:48:53.850Z,16.37
2018-03-02T18:51:21.312Z,15.00
2018-03-02T18:53:49.079Z,24.87
2018-03-02T18:56:16.524Z,18.87
2018-03-02T18:58:43.940Z,16.67
2018-03-02T19:01:11.328Z,16.30
2018-03-02T19:03:38.802Z,17.30
2018-03-02T19:06:06.488Z,17.62
2018-03-02T19:08:33.989Z,19.80
2018-03-02T19:11:01.693Z,16.62
2018-03-02T19:13:29.214Z,20.25
2018-03-02T19:15:56.636Z,16.40
2018-03-02T19:18:24.126Z,17.48
2018-03-02T19:20:51.545Z,17.05
2018-03-02T19:23:18.935Z,14.50
2018-03-02T19:25:46.516Z,15.68
2018-03-02T19:28:13.945Z,16.23
2018-03-02T19:30:41.345Z,24.73
2018-03-02T19:33:08.785Z,20.45
2018-03-02T19:35:36.262Z,22.70
2018-03-02T19:38:03.673Z,20.20
2018-03-02T19:40:31.099Z,20.02
2018-03-02T19:42:58.513Z,22.23
2018-03-02T19:45:26.872Z,16.98
2018-03-02T19:47:54.785Z,29.33
2018-03-02T19:50:22.404Z,19.37
2018-03-02T19:52:49.806Z,18.35
2018-03-02T19:55:17.345Z,21.77
2018-03-02T19:57:45.312Z,19.52
2018-03-02T20:00:12.751Z,21.40
2018-03-02T20:02:40.241Z,19.17
2018-03-02T20:05:07.653Z,16.75
2018-03-02T20:07:35.096Z,22.55
2018-03-02T20:10:02.548Z,18.37
2018-03-02T20:12:30.852Z,18.23
2018-03-02T20:14:58.286Z,17.37
2018-03-02T20:17:25.776Z,15.05
2018-03-02T20:19:53.228Z,17.27
2018-03-02T20:22:20.757Z,22.73
2018-03-02T20:24:48.230Z,17.30
2018-03-02T20:27:15.710Z,21.27
2018-03-02T20:29:43.190Z,18.40
2018-03-02T20:32:10.597Z,19.42
2018-03-02T20:34:38.034Z,19.55
2018-03-02T20:37:05.466Z,24.25
2018-03-02T20:39:32.890Z,17.52
2018-03-02T20:42:00.283Z,16.55
2018-03-02T20:44:27.681Z,21.80
2018-03-02T20:46:55.096Z,23.62
2018-03-02T20:49:22.538Z,20.80
2018-03-02T20:51:49.928Z,21.92
2018-03-02T20:54:17.495Z,20.05
2018-03-02T20:56:44.983Z,23.55
2018-03-02T20:59:12.412Z,23.95
2018-03-02T21:01:39.829Z,24.30
2018-03-02T21:04:07.235Z,18.25
2018-03-02T21:06:34.712Z,17.55
2018-03-02T21:09:02.142Z,22.67
2018-03-02T21:11:29.536Z,22.67
2018-03-02T21:13:57.218Z,18.80
2018-03-02T21:16:24.609Z,24.02
2018-03-02T21:18:52.014Z,17.10
2018-03-02T21:21:19.661Z,18.75
2018-03-02T21:23:47.158Z,27.73
2018-03-02T21:26:14.556Z,26.70
2018-03-02T21:28:42.172Z,36.35
2018-03-02T21:31:09.626Z,19.90
2018-03-02T21:33:37.100Z,31.95
2018-03-02T21:36:04.503Z,22.30
2018-03-02T21:38:32.285Z,21.00
2018-03-02T21:40:59.682Z,22.87
2018-03-02T21:43:27.087Z,21.40
2018-03-02T21:45:54.741Z,26.55
2018-03-02T21:48:22.260Z,22.13
2018-03-02T21:50:49.689Z,32.30
2018-03-02T21:53:17.176Z,23.90
2018-03-02T21:55:44.596Z,23.62
2018-03-02T21:58:12.065Z,17.85
2018-03-02T22:00:39.807Z,22.35
2018-03-02T22:03:07.375Z,25.62
2018-03-02T22:05:34.816Z,31.85
2018-03-02T22:08:02.277Z,19.52
2018-03-02T22:10:29.992Z,24.50
2018-03-02T22:12:57.446Z,50.17
2018-03-02T22:15:24.884Z,67.57
2018-03-02T22:17:52.342Z,31.62
2018-03-02T22:20:19.772Z,35.38
2018-03-02T22:22:47.224Z,26.58
2018-03-02T22:25:14.646Z,26.37
2018-03-02T22:27:42.284Z,27.77
2018-03-02T22:30:09.760Z,30.20
2018-03-02T22:32:37.237Z,18.98
2018-03-02T22:35:04.665Z,21.42
2018-03-02T22:37:32.049Z,21.98
2018-03-02T22:39:59.517Z,20.10
2018-03-02T22:42:26.969Z,30.00
2018-03-02T22:44:54.390Z,23.50
2018-03-02T22:47:21.826Z,28.80
2018-03-02T22:49:49.253Z,19.95
2018-03-02T22:52:16.653Z,23.67
2018-03-02T22:54:44.052Z,20.60
2018-03-02T22:57:11.489Z,20.40
2018-03-02T22:59:38.958Z,23.05
2018-03-02T23:02:06.561Z,20.40
2018-03-02T23:04:33.949Z,22.27
2018-03-02T23:07:01.421Z,34.55
2018-03-02T23:09:28.818Z,38.33
2018-03-02T23:11:56.263Z,44.30
2018-03-02T23:14:23.680Z,26.27
2018-03-02T23:16:51.087Z,57.15
2018-03-02T23:19:18.487Z,40.33
2018-03-02T23:21:45.883Z,35.55
2018-03-02T23:24:13.529Z,56.47
2018-03-02T23:26:40.994Z,62.88
2018-03-02T23:29:08.436Z,52.83
2018-03-02T23:31:35.904Z,50.78
2018-03-02T23:34:03.444Z,61.65
2018-03-02T23:36:30.904Z,43.25
2018-03-02T23:38:58.332Z,43.63
2018-03-02T23:41:25.773Z,28.75
2018-03-02T23:43:53.251Z,54.97
2018-03-02T23:46:21.247Z,30.10
2018-03-02T23:48:48.681Z,38.42
2018-03-02T23:51:16.074Z,24.23
2018-03-02T23:53:43.629Z,35.05
2018-03-02T23:56:11.019Z,31.50
2018-03-02T23:58:38.431Z,28.58
